sensor_id;sensor_type;location;lat;lon;timestamp;P1;durP1;ratioP1;P2;durP2;ratioP2
14320;SDS011;7244;47.364;8.464;2022-11-15T00:14:02;5;;;1;;
14320;SDS011;7244;47.364;8.464;2022-11-15T00:30:02;1;;;1;;
14320;SDS011;7244;47.364;8.464;2022-11-15T00:46:02;1;;;1;;
14320;SDS011;7244;47.364;8.464;2022-11-15T01:02:02;2;;;1;;
14320;SDS011;7244;47.364;8.464;2022-11-15T01:17:02;3;;;2;;
14320;SDS011;7244;47.364;8.464;2022-11-15T01:33:01;3;;;2;;
14320;SDS011;7244;47.364;8.464;2022-11-15T01:49:03;7;;;2;;
14320;SDS011;7244;47.364;8.464;2022-11-15T02:05:02;2;;;1;;
14320;SDS011;7244;47.364;8.464;2022-11-15T02:20:20;4;;;1;;
14320;SDS011;7244;47.364;8.464;2022-11-15T02:36:02;5;;;2;;
14320;SDS011;7244;47.364;8.464;2022-11-15T02:52:02;2;;;1;;
14320;SDS011;7244;47.364;8.464;2022-11-15T03:08:03;3;;;1;;
14320;SDS011;7244;47.364;8.464;2022-11-15T03:24:03;2;;;1;;
14320;SDS011;7244;47.364;8.464;2022-11-15T03:39:03;3;;;1;;
14320;SDS011;7244;47.364;8.464;2022-11-15T03:55:02;2;;;1;;
14320;SDS011;7244;47.364;8.464;2022-11-15T04:11:02;2;;;1;;
14320;SDS011;7244;47.364;8.464;2022-11-15T04:27:01;4;;;1;;
14320;SDS011;7244;47.364;8.464;2022-11-15T04:42:01;5;;;2;;
14320;SDS011;7244;47.364;8.464;2022-11-15T04:58:02;4;;;2;;
14320;SDS011;7244;47.364;8.464;2022-11-15T05:14:01;3;;;2;;
14320;SDS011;7244;47.364;8.464;2022-11-15T05:29:01;3;;;2;;
14320;SDS011;7244;47.364;8.464;2022-11-15T05:45:01;2;;;2;;
14320;SDS011;7244;47.364;8.464;2022-11-15T06:01:02;3;;;2;;
14320;SDS011;7244;47.364;8.464;2022-11-15T06:17:01;3;;;2;;
14320;SDS011;7244;47.364;8.464;2022-11-15T06:32:01;5;;;2;;
14320;SDS011;7244;47.364;8.464;2022-11-15T06:48:01;4;;;2;;
14320;SDS011;7244;47.364;8.464;2022-11-15T07:04:01;2;;;1;;
14320;SDS011;7244;47.364;8.464;2022-11-15T07:20:01;14;;;3;;
14320;SDS011;7244;47.364;8.464;2022-11-15T07:35:02;17;;;3;;
14320;SDS011;7244;47.364;8.464;2022-11-15T07:51:02;9;;;3;;
14320;SDS011;7244;47.364;8.464;2022-11-15T08:07:02;12;;;4;;
14320;SDS011;7244;47.364;8.464;2022-11-15T08:22:02;12;;;5;;
14320;SDS011;7244;47.364;8.464;2022-11-15T08:38:03;7;;;4;;
14320;SDS011;7244;47.364;8.464;2022-11-15T08:54:02;17;;;4;;
14320;SDS011;7244;47.364;8.464;2022-11-15T09:10:03;10;;;4;;
14320;SDS011;7244;47.364;8.464;2022-11-15T09:25:02;10;;;4;;
14320;SDS011;7244;47.364;8.464;2022-11-15T09:41:22;8;;;3;;
14320;SDS011;7244;47.364;8.464;2022-11-15T09:57:03;5;;;3;;
14320;SDS011;7244;47.364;8.464;2022-11-15T10:13:02;5;;;3;;
14320;SDS011;7244;47.364;8.464;2022-11-15T10:28:04;6;;;3;;
14320;SDS011;7244;47.364;8.464;2022-11-15T10:44:19;5;;;3;;
14320;SDS011;7244;47.364;8.464;2022-11-15T11:00:03;8;;;4;;
14320;SDS011;7244;47.364;8.464;2022-11-15T11:15:05;8;;;4;;
14320;SDS011;7244;47.364;8.464;2022-11-15T11:31:05;8;;;4;;
14320;SDS011;7244;47.364;8.464;2022-11-15T11:47:03;22;;;6;;
14320;SDS011;7244;47.364;8.464;2022-11-15T12:03:03;10;;;7;;
14320;SDS011;7244;47.364;8.464;2022-11-15T12:18:02;23;;;7;;
14320;SDS011;7244;47.364;8.464;2022-11-15T12:34:02;10;;;5;;
14320;SDS011;7244;47.364;8.464;2022-11-15T12:50:03;8;;;4;;
14320;SDS011;7244;47.364;8.464;2022-11-15T13:06:04;10;;;5;;
14320;SDS011;7244;47.364;8.464;2022-11-15T13:21:03;5;;;3;;
14320;SDS011;7244;47.364;8.464;2022-11-15T13:37:02;11;;;4;;
14320;SDS011;7244;47.364;8.464;2022-11-15T13:53:02;16;;;7;;
14320;SDS011;7244;47.364;8.464;2022-11-15T14:08:03;14;;;8;;
14320;SDS011;7244;47.364;8.464;2022-11-15T14:24:17;15;;;7;;
14320;SDS011;7244;47.364;8.464;2022-11-15T14:40:03;10;;;5;;
14320;SDS011;7244;47.364;8.464;2022-11-15T14:56:01;9;;;4;;
14320;SDS011;7244;47.364;8.464;2022-11-15T15:11:01;9;;;3;;
14320;SDS011;7244;47.364;8.464;2022-11-15T15:27:02;12;;;6;;
14320;SDS011;7244;47.364;8.464;2022-11-15T15:43:02;6;;;3;;
14320;SDS011;7244;47.364;8.464;2022-11-15T15:59:02;6;;;3;;
14320;SDS011;7244;47.364;8.464;2022-11-15T16:14:01;6;;;3;;
14320;SDS011;7244;47.364;8.464;2022-11-15T16:30:01;6;;;3;;
14320;SDS011;7244;47.364;8.464;2022-11-15T16:46:01;6;;;3;;
14320;SDS011;7244;47.364;8.464;2022-11-15T17:01:01;5;;;2;;
14320;SDS011;7244;47.364;8.464;2022-11-15T17:17:02;8;;;3;;
14320;SDS011;7244;47.364;8.464;2022-11-15T17:33:02;5;;;3;;
14320;SDS011;7244;47.364;8.464;2022-11-15T17:49:02;9;;;3;;
14320;SDS011;7244;47.364;8.464;2022-11-15T18:04:02;10;;;5;;
14320;SDS011;7244;47.364;8.464;2022-11-15T18:20:01;13;;;6;;
14320;SDS011;7244;47.364;8.464;2022-11-15T18:36:02;17;;;7;;
14320;SDS011;7244;47.364;8.464;2022-11-15T18:52:01;10;;;6;;
14320;SDS011;7244;47.364;8.464;2022-11-15T19:07:01;11;;;6;;
14320;SDS011;7244;47.364;8.464;2022-11-15T19:23:01;13;;;6;;
14320;SDS011;7244;47.364;8.464;2022-11-15T19:39:03;12;;;8;;
14320;SDS011;7244;47.364;8.464;2022-11-15T19:54:02;15;;;8;;
14320;SDS011;7244;47.364;8.464;2022-11-15T20:10:01;13;;;8;;
14320;SDS011;7244;47.364;8.464;2022-11-15T20:26:02;16;;;9;;
14320;SDS011;7244;47.364;8.464;2022-11-15T20:42:05;13;;;8;;
14320;SDS011;7244;47.364;8.464;2022-11-15T20:58:01;14;;;9;;
14320;SDS011;7244;47.364;8.464;2022-11-15T21:13:01;11;;;8;;
14320;SDS011;7244;47.364;8.464;2022-11-15T21:29:02;15;;;8;;
14320;SDS011;7244;47.364;8.464;2022-11-15T21:44:02;9;;;5;;
14320;SDS011;7244;47.364;8.464;2022-11-15T22:00:02;13;;;8;;
14320;SDS011;7244;47.364;8.464;2022-11-15T22:16:01;14;;;8;;
14320;SDS011;7244;47.364;8.464;2022-11-15T22:32:02;19;;;11;;
14320;SDS011;7244;47.364;8.464;2022-11-15T22:47:02;15;;;10;;
14320;SDS011;7244;47.364;8.464;2022-11-15T23:03:02;13;;;9;;
14320;SDS011;7244;47.364;8.464;2022-11-15T23:19:03;23;;;13;;
14320;SDS011;7244;47.364;8.464;2022-11-15T23:35:02;20;;;13;;
14320;SDS011;7244;47.364;8.464;2022-11-15T23:50:02;18;;;12;;
